createdAt,value
2017-10-13T00:00:45.967Z,7.40
2017-10-13T00:03:14.357Z,6.27
2017-10-13T00:05:44.227Z,6.87
2017-10-13T00:08:12.528Z,8.40
2017-10-13T00:10:41.620Z,5.10
2017-10-13T00:13:09.943Z,7.40
2017-10-13T00:15:38.253Z,6.13
2017-10-13T00:18:06.579Z,6.60
2017-10-13T00:20:34.903Z,6.37
2017-10-13T00:23:03.202Z,5.63
2017-10-13T00:25:32.270Z,6.77
2017-10-13T00:28:00.587Z,6.20
2017-10-13T00:30:28.878Z,5.53
2017-10-13T00:32:57.192Z,5.57
2017-10-13T00:35:25.488Z,5.90
2017-10-13T00:37:54.596Z,5.93
2017-10-13T00:40:23.657Z,5.57
2017-10-13T00:42:51.998Z,6.27
2017-10-13T00:45:20.287Z,5.87
2017-10-13T00:47:48.587Z,7.20
2017-10-13T00:50:16.890Z,6.30
2017-10-13T00:52:45.999Z,5.07
2017-10-13T00:55:15.066Z,6.03
2017-10-13T00:57:44.154Z,6.00
2017-10-13T01:00:12.476Z,6.67
2017-10-13T01:02:41.858Z,6.53
2017-10-13T01:05:10.963Z,6.43
2017-10-13T01:07:39.296Z,7.70
2017-10-13T01:10:07.605Z,6.67
2017-10-13T01:12:36.666Z,7.67
2017-10-13T01:15:05.043Z,8.37
2017-10-13T01:17:33.355Z,6.33
2017-10-13T01:20:01.660Z,7.07
2017-10-13T01:22:30.335Z,6.20
2017-10-13T01:24:58.637Z,5.77
2017-10-13T01:27:27.037Z,7.30
2017-10-13T01:29:55.366Z,6.93
2017-10-13T01:32:24.460Z,6.87
2017-10-13T01:34:52.762Z,7.20
2017-10-13T01:37:21.130Z,5.73
2017-10-13T01:39:49.462Z,8.20
2017-10-13T01:42:17.786Z,8.30
2017-10-13T01:44:46.096Z,8.17
2017-10-13T01:47:15.195Z,7.00
2017-10-13T01:49:44.386Z,9.27
2017-10-13T01:52:12.711Z,9.00
2017-10-13T01:54:41.841Z,12.33
2017-10-13T01:57:10.139Z,12.37
2017-10-13T01:59:38.458Z,10.50
2017-10-13T02:02:06.792Z,10.43
2017-10-13T02:04:35.094Z,9.23
2017-10-13T02:07:03.414Z,11.10
2017-10-13T02:09:31.725Z,9.43
2017-10-13T02:12:00.068Z,13.27
2017-10-13T02:14:28.950Z,11.77
2017-10-13T02:16:57.290Z,12.97
2017-10-13T02:19:25.649Z,12.40
2017-10-13T02:21:53.946Z,13.47
2017-10-13T02:24:23.055Z,12.37
2017-10-13T02:26:51.377Z,11.87
2017-10-13T02:29:19.708Z,11.53
2017-10-13T02:31:48.787Z,10.20
2017-10-13T02:34:17.122Z,12.43
2017-10-13T02:36:45.446Z,13.07
2017-10-13T02:39:13.782Z,13.80
2017-10-13T02:41:42.096Z,12.00
2017-10-13T02:44:11.527Z,12.33
2017-10-13T02:46:40.590Z,13.10
2017-10-13T02:49:08.899Z,13.40
2017-10-13T02:51:37.246Z,12.73
2017-10-13T02:54:05.554Z,14.77
2017-10-13T02:56:39.735Z,10.00
2017-10-13T02:59:08.084Z,15.20
2017-10-13T03:01:36.434Z,12.83
2017-10-13T03:04:04.736Z,14.23
2017-10-13T03:06:33.348Z,10.87
2017-10-13T03:09:01.669Z,13.20
2017-10-13T03:11:30.016Z,13.23
2017-10-13T03:13:59.095Z,11.70
2017-10-13T03:16:27.496Z,13.20
2017-10-13T03:18:56.588Z,11.40
2017-10-13T03:21:25.664Z,11.50
2017-10-13T03:23:54.758Z,11.33
2017-10-13T03:26:23.854Z,12.47
2017-10-13T03:28:52.186Z,10.60
2017-10-13T03:31:20.507Z,11.27
2017-10-13T03:33:48.852Z,10.67
2017-10-13T03:36:17.207Z,10.33
2017-10-13T03:38:45.549Z,9.40
2017-10-13T03:41:13.882Z,9.73
2017-10-13T03:43:43.060Z,10.70
2017-10-13T03:46:11.383Z,8.97
2017-10-13T03:48:40.504Z,11.60
2017-10-13T03:51:08.838Z,8.40
2017-10-13T03:53:37.182Z,9.70
2017-10-13T03:56:05.520Z,11.87
2017-10-13T03:58:34.611Z,8.50
2017-10-13T04:01:02.952Z,9.50
2017-10-13T04:03:32.091Z,9.37
2017-10-13T04:06:01.191Z,8.50
2017-10-13T04:08:30.270Z,11.27
2017-10-13T04:10:59.383Z,10.30
2017-10-13T04:13:27.703Z,9.53
2017-10-13T04:15:56.036Z,8.70
2017-10-13T04:18:25.101Z,8.77
2017-10-13T04:20:53.439Z,9.90
2017-10-13T04:23:21.736Z,8.30
2017-10-13T04:25:50.091Z,7.83
2017-10-13T04:28:18.399Z,8.90
2017-10-13T04:30:46.700Z,8.27
2017-10-13T04:33:15.809Z,8.00
2017-10-13T04:35:44.100Z,9.47
2017-10-13T04:38:12.419Z,10.77
2017-10-13T04:40:40.735Z,9.83
2017-10-13T04:43:09.827Z,8.50
2017-10-13T04:45:38.216Z,10.17
2017-10-13T04:48:06.576Z,9.37
2017-10-13T04:50:34.925Z,8.10
2017-10-13T04:53:03.271Z,7.57
2017-10-13T04:55:31.603Z,7.30
2017-10-13T04:57:59.942Z,9.53
2017-10-13T05:00:28.266Z,8.40
2017-10-13T05:02:56.636Z,9.23
2017-10-13T05:05:24.920Z,9.20
2017-10-13T05:07:53.209Z,7.83
2017-10-13T05:10:22.297Z,8.37
2017-10-13T05:12:50.599Z,7.70
2017-10-13T05:15:18.934Z,8.73
2017-10-13T05:17:47.224Z,7.87
2017-10-13T05:20:15.564Z,7.07
2017-10-13T05:22:43.903Z,8.13
2017-10-13T05:25:12.344Z,9.23
2017-10-13T05:27:41.442Z,8.23
2017-10-13T05:30:09.759Z,9.73
2017-10-13T05:32:38.063Z,8.73
2017-10-13T05:35:06.411Z,10.40
2017-10-13T05:37:34.710Z,10.20
2017-10-13T05:40:03.033Z,9.30
2017-10-13T05:42:31.346Z,10.07
2017-10-13T05:44:59.646Z,8.00
2017-10-13T05:47:27.993Z,9.47
2017-10-13T05:49:56.298Z,6.83
2017-10-13T05:52:24.616Z,9.40
2017-10-13T05:54:53.698Z,9.13
2017-10-13T05:57:22.048Z,7.93
2017-10-13T05:59:50.363Z,9.20
2017-10-13T06:02:18.698Z,9.77
2017-10-13T06:04:46.990Z,9.10
2017-10-13T06:07:15.318Z,9.27
2017-10-13T06:09:43.659Z,8.60
2017-10-13T06:12:11.952Z,9.90
2017-10-13T06:14:40.316Z,9.20
2017-10-13T06:17:09.515Z,9.53
2017-10-13T06:19:37.935Z,9.90
2017-10-13T06:22:06.308Z,10.50
2017-10-13T06:24:34.655Z,12.17
2017-10-13T06:27:03.023Z,9.20
2017-10-13T06:29:31.675Z,10.50
2017-10-13T06:31:59.978Z,10.07
2017-10-13T06:34:28.381Z,10.10
2017-10-13T06:36:57.691Z,26.87
2017-10-13T06:39:26.047Z,10.10
2017-10-13T06:41:55.140Z,8.97
2017-10-13T06:44:24.225Z,11.23
2017-10-13T06:46:54.054Z,8.80
2017-10-13T06:49:23.111Z,7.93
2017-10-13T06:51:51.456Z,8.77
2017-10-13T06:54:19.800Z,9.90
2017-10-13T06:56:48.179Z,7.73
2017-10-13T06:59:17.259Z,10.97
2017-10-13T07:01:46.363Z,9.10
2017-10-13T07:04:14.678Z,11.30
2017-10-13T07:06:42.970Z,47.33
2017-10-13T07:09:11.290Z,13.03
2017-10-13T07:11:39.627Z,9.53
2017-10-13T07:14:08.086Z,10.60
2017-10-13T07:16:36.742Z,10.00
2017-10-13T07:19:05.906Z,8.50
2017-10-13T07:21:34.196Z,10.47
2017-10-13T07:24:06.370Z,11.73
2017-10-13T07:26:34.659Z,9.70
2017-10-13T07:29:03.027Z,10.20
2017-10-13T07:31:32.107Z,8.67
2017-10-13T07:34:00.500Z,10.70
2017-10-13T07:36:29.595Z,9.23
2017-10-13T07:38:58.675Z,9.40
2017-10-13T07:41:27.000Z,9.60
2017-10-13T07:43:55.303Z,10.00
2017-10-13T07:46:23.627Z,12.43
2017-10-13T07:48:52.701Z,10.20
2017-10-13T07:51:21.814Z,10.27
2017-10-13T07:53:50.907Z,11.00
2017-10-13T07:56:20.032Z,12.10
2017-10-13T07:58:48.342Z,11.80
2017-10-13T08:01:16.659Z,10.47
2017-10-13T08:03:45.000Z,10.70
2017-10-13T08:06:13.373Z,9.37
2017-10-13T08:08:41.683Z,10.07
2017-10-13T08:11:10.769Z,9.50
2017-10-13T08:13:39.090Z,11.00
2017-10-13T08:16:07.401Z,9.63
2017-10-13T08:18:35.745Z,10.73
2017-10-13T08:21:04.075Z,10.00
2017-10-13T08:23:32.419Z,10.60
2017-10-13T08:26:00.739Z,10.50
2017-10-13T08:28:29.866Z,13.03
2017-10-13T08:30:58.168Z,12.03
2017-10-13T08:33:26.535Z,14.30
2017-10-13T08:35:54.854Z,12.77
2017-10-13T08:38:23.191Z,12.27
2017-10-13T08:40:51.747Z,10.80
2017-10-13T08:43:20.855Z,13.37
2017-10-13T08:45:49.202Z,13.33
2017-10-13T08:48:18.276Z,14.63
2017-10-13T08:50:46.599Z,10.23
2017-10-13T08:53:15.172Z,11.40
2017-10-13T08:55:43.554Z,11.77
2017-10-13T08:58:11.867Z,10.33
2017-10-13T09:00:40.217Z,8.53
2017-10-13T09:03:08.559Z,12.10
2017-10-13T09:05:37.759Z,10.80
2017-10-13T09:08:06.835Z,9.73
2017-10-13T09:10:35.163Z,10.83
2017-10-13T09:13:03.540Z,10.17
2017-10-13T09:15:31.864Z,9.57
2017-10-13T09:18:00.198Z,12.43
2017-10-13T09:20:29.440Z,11.70
2017-10-13T09:23:03.371Z,14.57
2017-10-13T09:25:32.442Z,11.37
2017-10-13T09:28:00.771Z,10.87
2017-10-13T09:30:29.864Z,10.73
2017-10-13T09:32:58.297Z,10.60
2017-10-13T09:35:26.607Z,11.03
2017-10-13T09:37:55.663Z,9.93
2017-10-13T09:40:23.991Z,10.20
2017-10-13T09:42:52.297Z,10.60
2017-10-13T09:45:20.660Z,8.40
2017-10-13T09:47:48.951Z,10.73
2017-10-13T09:50:17.303Z,10.70
2017-10-13T09:52:45.596Z,9.10
2017-10-13T09:55:13.927Z,8.93
2017-10-13T09:57:43.020Z,9.40
2017-10-13T10:00:11.354Z,9.53
2017-10-13T10:02:39.668Z,8.57
2017-10-13T10:05:07.975Z,10.57
2017-10-13T10:07:36.351Z,8.10
2017-10-13T10:10:04.650Z,10.93
2017-10-13T10:12:32.959Z,7.40
2017-10-13T10:15:01.286Z,9.97
2017-10-13T10:17:29.626Z,9.70
2017-10-13T10:19:57.959Z,10.73
2017-10-13T10:22:26.398Z,9.13
2017-10-13T10:24:54.815Z,8.83
2017-10-13T10:27:23.174Z,10.40
2017-10-13T10:29:51.534Z,9.50
2017-10-13T10:32:20.598Z,10.70
2017-10-13T10:34:48.953Z,9.20
2017-10-13T10:37:17.267Z,10.37
2017-10-13T10:39:46.354Z,10.00
2017-10-13T10:42:15.454Z,8.93
2017-10-13T10:44:44.595Z,12.57
2017-10-13T10:47:12.923Z,8.57
2017-10-13T10:49:42.026Z,9.70
2017-10-13T10:52:10.362Z,10.03
2017-10-13T10:54:39.498Z,9.27
2017-10-13T10:57:07.790Z,8.50
2017-10-13T10:59:36.135Z,8.07
2017-10-13T11:02:04.449Z,8.83
2017-10-13T11:04:32.803Z,11.83
2017-10-13T11:07:01.137Z,9.90
2017-10-13T11:09:29.483Z,8.43
2017-10-13T11:11:57.800Z,7.93
2017-10-13T11:14:26.098Z,9.53
2017-10-13T11:16:54.473Z,8.10
2017-10-13T11:19:22.783Z,8.70
2017-10-13T11:21:51.140Z,10.53
2017-10-13T11:24:20.231Z,8.80
2017-10-13T11:26:49.352Z,11.73
2017-10-13T11:29:17.671Z,10.30
2017-10-13T11:31:46.047Z,11.63
2017-10-13T11:34:14.364Z,11.13
2017-10-13T11:36:43.465Z,9.37
2017-10-13T11:39:12.547Z,8.90
2017-10-13T11:41:41.707Z,11.30
2017-10-13T11:44:10.020Z,8.07
2017-10-13T11:46:38.405Z,10.40
2017-10-13T11:49:06.792Z,10.50
2017-10-13T11:51:35.878Z,10.40
2017-10-13T11:54:04.955Z,9.30
2017-10-13T11:56:33.397Z,10.03
2017-10-13T11:59:02.580Z,9.07
2017-10-13T12:01:30.910Z,9.53
2017-10-13T12:03:59.246Z,10.37
2017-10-13T12:06:27.530Z,12.63
2017-10-13T12:08:55.857Z,11.27
2017-10-13T12:11:24.946Z,9.87
2017-10-13T12:13:54.084Z,9.60
2017-10-13T12:16:23.328Z,9.93
2017-10-13T12:18:51.679Z,10.70
2017-10-13T12:21:19.999Z,10.93
2017-10-13T12:23:49.074Z,12.67
2017-10-13T12:26:17.695Z,10.00
2017-10-13T12:28:46.075Z,9.73
2017-10-13T12:31:14.422Z,9.83
2017-10-13T12:33:43.532Z,10.13
2017-10-13T12:36:12.618Z,8.97
2017-10-13T12:38:41.700Z,9.73
2017-10-13T12:41:10.817Z,8.43
2017-10-13T12:43:39.172Z,10.50
2017-10-13T12:46:08.277Z,9.47
2017-10-13T12:48:36.643Z,10.13
2017-10-13T12:51:05.000Z,12.83
2017-10-13T12:53:33.330Z,13.77
2017-10-13T12:56:01.677Z,14.27
2017-10-13T12:58:30.803Z,10.40
2017-10-13T13:00:59.114Z,13.20
2017-10-13T13:03:27.479Z,11.33
2017-10-13T13:05:56.014Z,11.87
2017-10-13T13:08:25.114Z,10.37
2017-10-13T13:10:53.451Z,11.93
2017-10-13T13:13:21.822Z,11.57
2017-10-13T13:15:50.155Z,10.20
2017-10-13T13:18:18.522Z,11.50
2017-10-13T13:20:47.088Z,11.17
2017-10-13T13:23:15.420Z,11.03
2017-10-13T13:25:45.206Z,12.33
2017-10-13T13:28:14.311Z,12.80
2017-10-13T13:30:42.623Z,12.87
2017-10-13T13:33:10.951Z,11.20
2017-10-13T13:35:40.023Z,12.40
2017-10-13T13:38:08.323Z,13.33
2017-10-13T13:40:37.431Z,15.23
2017-10-13T13:43:06.487Z,12.30
2017-10-13T13:45:34.815Z,11.60
2017-10-13T13:48:03.204Z,13.20
2017-10-13T13:50:31.562Z,13.93
2017-10-13T13:52:59.874Z,12.43
2017-10-13T13:55:28.243Z,13.20
2017-10-13T13:57:56.555Z,11.60
2017-10-13T14:00:24.867Z,14.70
2017-10-13T14:02:53.211Z,11.97
2017-10-13T14:05:21.555Z,11.73
2017-10-13T14:07:49.938Z,14.63
2017-10-13T14:10:18.236Z,11.20
2017-10-13T14:12:46.564Z,11.90
2017-10-13T14:15:14.864Z,10.60
2017-10-13T14:17:43.319Z,10.57
2017-10-13T14:20:12.363Z,13.50
2017-10-13T14:22:40.719Z,14.17
2017-10-13T14:25:09.031Z,12.87
2017-10-13T14:27:38.114Z,13.23
2017-10-13T14:30:06.446Z,13.43
2017-10-13T14:32:34.759Z,12.53
2017-10-13T14:35:03.087Z,13.20
2017-10-13T14:37:31.390Z,13.87
2017-10-13T14:39:59.943Z,16.30
2017-10-13T14:42:28.292Z,16.57
2017-10-13T14:44:56.829Z,13.80
2017-10-13T14:47:25.215Z,14.43
2017-10-13T14:49:53.641Z,14.10
2017-10-13T14:52:22.764Z,15.40
2017-10-13T14:54:51.112Z,14.10
2017-10-13T14:57:19.418Z,14.43
2017-10-13T14:59:47.738Z,14.37
2017-10-13T15:02:16.868Z,14.40
2017-10-13T15:04:45.944Z,13.53
2017-10-13T15:07:14.274Z,13.67
2017-10-13T15:09:42.609Z,13.20
2017-10-13T15:12:10.907Z,15.20
2017-10-13T15:14:39.226Z,15.40
2017-10-13T15:17:07.728Z,14.03
2017-10-13T15:19:36.835Z,14.20
2017-10-13T15:22:05.930Z,14.47
2017-10-13T15:24:35.014Z,14.90
2017-10-13T15:27:09.077Z,16.30
2017-10-13T15:29:43.188Z,16.23
2017-10-13T15:32:17.410Z,14.30
2017-10-13T15:34:51.363Z,14.80
2017-10-13T15:37:20.490Z,14.83
2017-10-13T15:39:54.499Z,14.63
2017-10-13T15:45:26.448Z,16.60
2017-10-13T15:48:00.651Z,15.80
2017-10-13T15:53:28.787Z,15.43
2017-10-13T15:55:57.112Z,16.27
2017-10-13T15:58:25.442Z,18.90
2017-10-13T16:00:53.784Z,16.90
2017-10-13T16:03:22.172Z,16.37
2017-10-13T16:05:50.510Z,17.60
2017-10-13T16:08:19.163Z,15.97
2017-10-13T16:10:48.003Z,16.17
2017-10-13T16:13:16.441Z,18.97
2017-10-13T16:15:44.780Z,16.37
2017-10-13T16:18:13.128Z,18.17
2017-10-13T16:20:41.512Z,22.17
2017-10-13T16:23:09.814Z,19.67
2017-10-13T16:25:38.894Z,19.93
2017-10-13T16:28:08.038Z,16.20
2017-10-13T16:30:36.408Z,16.83
2017-10-13T16:33:04.811Z,17.90
2017-10-13T16:35:33.187Z,16.90
2017-10-13T16:38:01.504Z,17.87
2017-10-13T16:40:30.627Z,15.77
2017-10-13T16:42:58.944Z,17.60
2017-10-13T16:45:27.254Z,18.13
2017-10-13T16:47:56.376Z,17.10
2017-10-13T16:50:25.440Z,16.53
2017-10-13T16:52:53.783Z,15.60
2017-10-13T16:55:22.075Z,16.97
2017-10-13T16:57:50.397Z,18.43
2017-10-13T17:00:19.464Z,18.37
2017-10-13T17:02:47.799Z,19.03
2017-10-13T17:05:16.119Z,17.13
2017-10-13T17:07:44.456Z,18.77
2017-10-13T17:10:12.803Z,18.30
2017-10-13T17:12:41.155Z,18.80
2017-10-13T17:15:09.495Z,19.33
2017-10-13T17:17:37.798Z,18.47
2017-10-13T17:20:06.971Z,19.00
2017-10-13T17:22:35.313Z,20.40
2017-10-13T17:25:03.649Z,19.90
2017-10-13T17:27:32.907Z,18.63
2017-10-13T17:30:02.393Z,19.40
2017-10-13T17:32:30.699Z,19.90
2017-10-13T17:34:59.076Z,18.97
2017-10-13T17:37:27.698Z,18.77
2017-10-13T17:39:57.423Z,18.53
2017-10-13T17:42:26.523Z,21.27
2017-10-13T17:44:54.904Z,20.67
2017-10-13T17:47:23.277Z,21.07
2017-10-13T17:49:51.661Z,23.03
2017-10-13T17:52:21.162Z,23.20
2017-10-13T17:54:49.511Z,21.97
2017-10-13T17:57:18.902Z,21.60
2017-10-13T17:59:48.222Z,22.83
2017-10-13T18:02:16.522Z,21.77
2017-10-13T18:04:44.896Z,23.20
2017-10-13T18:07:13.215Z,22.97
2017-10-13T18:09:41.902Z,28.03
2017-10-13T18:12:10.208Z,28.10
2017-10-13T18:14:38.547Z,27.27
2017-10-13T18:17:06.860Z,23.77
2017-10-13T18:19:36.056Z,25.80
2017-10-13T18:22:05.148Z,25.23
2017-10-13T18:24:33.633Z,24.97
2017-10-13T18:27:02.017Z,24.93
2017-10-13T18:29:30.351Z,22.63
2017-10-13T18:31:59.340Z,28.07
2017-10-13T18:34:27.701Z,27.30
2017-10-13T18:36:56.050Z,23.20
2017-10-13T18:39:24.375Z,25.33
2017-10-13T18:41:52.727Z,26.43
2017-10-13T18:44:21.053Z,26.30
2017-10-13T18:46:49.404Z,26.70
2017-10-13T18:49:17.750Z,26.47
2017-10-13T18:51:46.109Z,25.90
2017-10-13T18:54:15.227Z,25.07
2017-10-13T18:56:44.319Z,28.50
2017-10-13T18:59:12.667Z,25.67
2017-10-13T19:01:41.031Z,27.33
2017-10-13T19:04:09.642Z,25.37
2017-10-13T19:06:37.939Z,27.07
2017-10-13T19:09:06.435Z,25.13
2017-10-13T19:11:34.814Z,26.50
2017-10-13T19:14:03.206Z,24.33
2017-10-13T19:16:31.518Z,27.50
2017-10-13T19:19:00.720Z,26.87
2017-10-13T19:21:29.886Z,26.33
2017-10-13T19:23:58.211Z,30.57
2017-10-13T19:26:26.561Z,29.70
2017-10-13T19:28:54.888Z,27.67
2017-10-13T19:31:23.239Z,31.50
2017-10-13T19:33:51.581Z,26.90
2017-10-13T19:36:19.933Z,26.90
2017-10-13T19:38:48.253Z,26.57
2017-10-13T19:41:16.607Z,26.33
2017-10-13T19:43:44.925Z,27.33
2017-10-13T19:46:14.608Z,29.07
2017-10-13T19:48:42.914Z,28.73
2017-10-13T19:51:11.259Z,28.00
2017-10-13T19:53:40.355Z,28.27
2017-10-13T19:56:09.449Z,25.33
2017-10-13T19:58:38.569Z,29.37
2017-10-13T20:01:07.682Z,29.20
2017-10-13T20:03:36.014Z,27.93
2017-10-13T20:06:05.115Z,28.47
2017-10-13T20:08:33.472Z,29.70
2017-10-13T20:11:01.870Z,28.60
2017-10-13T20:13:30.217Z,27.57
2017-10-13T20:15:59.442Z,30.43
2017-10-13T20:18:27.776Z,28.23
2017-10-13T20:20:56.129Z,28.10
2017-10-13T20:23:24.463Z,26.53
2017-10-13T20:25:52.783Z,28.67
2017-10-13T20:28:21.123Z,25.33
2017-10-13T20:30:50.261Z,29.70
2017-10-13T20:33:18.566Z,27.60
2017-10-13T20:35:47.010Z,25.90
2017-10-13T20:38:16.107Z,25.73
2017-10-13T20:40:44.436Z,26.63
2017-10-13T20:43:12.781Z,26.40
2017-10-13T20:45:41.095Z,25.13
2017-10-13T20:48:09.418Z,25.20
2017-10-13T20:50:37.796Z,28.00
2017-10-13T20:53:06.103Z,28.60
2017-10-13T20:55:34.434Z,27.87
2017-10-13T20:58:02.775Z,27.40
2017-10-13T21:00:31.122Z,27.70
2017-10-13T21:02:59.462Z,27.23
2017-10-13T21:05:27.923Z,31.00
2017-10-13T21:07:57.051Z,26.73
2017-10-13T21:10:25.427Z,29.40
2017-10-13T21:12:54.528Z,28.90
2017-10-13T21:15:22.901Z,26.90
2017-10-13T21:17:51.234Z,30.03
2017-10-13T21:20:20.395Z,26.33
2017-10-13T21:22:48.706Z,26.57
2017-10-13T21:25:17.042Z,27.17
2017-10-13T21:27:45.376Z,25.70
2017-10-13T21:30:14.467Z,25.40
2017-10-13T21:32:42.798Z,23.50
2017-10-13T21:35:11.108Z,24.50
2017-10-13T21:37:39.456Z,25.30
2017-10-13T21:40:07.770Z,25.50
2017-10-13T21:42:36.115Z,23.30
2017-10-13T21:45:04.432Z,23.80
2017-10-13T21:47:33.590Z,20.93
2017-10-13T21:50:01.900Z,23.20
2017-10-13T21:52:30.449Z,23.50
2017-10-13T21:54:58.778Z,23.30
2017-10-13T21:57:27.862Z,22.27
2017-10-13T21:59:57.810Z,23.30
2017-10-13T22:02:26.133Z,20.93
2017-10-13T22:05:00.059Z,18.37
2017-10-13T22:07:28.374Z,18.90
2017-10-13T22:09:56.740Z,17.20
2017-10-13T22:12:25.063Z,17.10
2017-10-13T22:14:53.430Z,18.30
2017-10-13T22:17:21.756Z,16.60
2017-10-13T22:19:50.853Z,17.20
2017-10-13T22:22:19.925Z,17.07
2017-10-13T22:24:48.284Z,16.43
2017-10-13T22:27:16.581Z,18.03
2017-10-13T22:29:44.875Z,17.17
2017-10-13T22:32:13.222Z,16.10
2017-10-13T22:34:41.538Z,15.33
2017-10-13T22:37:10.652Z,13.67
2017-10-13T22:39:38.965Z,14.50
2017-10-13T22:42:07.312Z,14.00
2017-10-13T22:44:35.643Z,15.90
2017-10-13T22:47:03.982Z,16.43
2017-10-13T22:49:32.308Z,13.83
2017-10-13T22:52:01.441Z,14.50
2017-10-13T22:54:30.421Z,14.07
2017-10-13T22:56:58.759Z,15.50
2017-10-13T22:59:27.101Z,12.70
2017-10-13T23:01:55.429Z,14.40
2017-10-13T23:04:24.535Z,15.30
2017-10-13T23:06:53.598Z,15.93
2017-10-13T23:09:21.980Z,15.43
2017-10-13T23:11:50.290Z,14.30
2017-10-13T23:14:18.625Z,14.07
2017-10-13T23:16:46.959Z,14.27
2017-10-13T23:19:15.323Z,15.27
2017-10-13T23:21:43.649Z,14.90
2017-10-13T23:24:11.970Z,17.30
2017-10-13T23:26:40.349Z,14.70
2017-10-13T23:29:09.415Z,15.80
2017-10-13T23:31:38.531Z,17.30
2017-10-13T23:34:06.851Z,15.77
2017-10-13T23:36:35.195Z,16.77
2017-10-13T23:39:03.508Z,15.30
2017-10-13T23:41:31.837Z,16.00
2017-10-13T23:44:00.919Z,15.20
2017-10-13T23:46:30.015Z,15.53
2017-10-13T23:48:58.355Z,17.83
2017-10-13T23:51:26.721Z,15.37
2017-10-13T23:53:55.034Z,17.33
2017-10-13T23:56:23.362Z,15.57
2017-10-13T23:58:51.711Z,16.73
